sensor_id;sensor_type;location;lat;lon;timestamp;temperature;humidity
30534;DHT22;73248;52.398;9.814;2023-11-19T00:00:27;8.30;99.90
30534;DHT22;73248;52.398;9.814;2023-11-19T00:02:55;8.30;99.90
30534;DHT22;73248;52.398;9.814;2023-11-19T00:05:20;8.40;99.90
30534;DHT22;73248;52.398;9.814;2023-11-19T00:07:48;8.50;99.90
30534;DHT22;73248;52.398;9.814;2023-11-19T00:10:16;8.40;99.90
30534;DHT22;73248;52.398;9.814;2023-11-19T00:12:45;8.40;99.90
30534;DHT22;73248;52.398;9.814;2023-11-19T00:15:12;8.30;99.90
30534;DHT22;73248;52.398;9.814;2023-11-19T00:17:41;8.40;99.90
30534;DHT22;73248;52.398;9.814;2023-11-19T00:20:18;8.30;99.90
30534;DHT22;73248;52.398;9.814;2023-11-19T00:22:44;8.30;99.90
30534;DHT22;73248;52.398;9.814;2023-11-19T00:25:11;8.40;99.90
30534;DHT22;73248;52.398;9.814;2023-11-19T00:27:37;8.40;99.90
30534;DHT22;73248;52.398;9.814;2023-11-19T00:30:06;8.50;99.90
30534;DHT22;73248;52.398;9.814;2023-11-19T00:32:32;8.50;99.90
30534;DHT22;73248;52.398;9.814;2023-11-19T00:34:58;8.50;99.90
30534;DHT22;73248;52.398;9.814;2023-11-19T00:37:24;8.50;99.90
30534;DHT22;73248;52.398;9.814;2023-11-19T00:39:49;8.50;99.90
30534;DHT22;73248;52.398;9.814;2023-11-19T00:42:17;8.50;99.90
30534;DHT22;73248;52.398;9.814;2023-11-19T00:44:43;8.40;99.90
30534;DHT22;73248;52.398;9.814;2023-11-19T00:47:20;8.50;99.90
30534;DHT22;73248;52.398;9.814;2023-11-19T00:49:47;8.60;99.90
30534;DHT22;73248;52.398;9.814;2023-11-19T00:52:16;8.60;99.90
30534;DHT22;73248;52.398;9.814;2023-11-19T00:54:45;8.60;99.90
30534;DHT22;73248;52.398;9.814;2023-11-19T00:57:10;8.60;99.90
30534;DHT22;73248;52.398;9.814;2023-11-19T00:59:36;8.60;99.90
30534;DHT22;73248;52.398;9.814;2023-11-19T01:02:02;8.70;99.90
30534;DHT22;73248;52.398;9.814;2023-11-19T01:04:37;8.60;99.90
30534;DHT22;73248;52.398;9.814;2023-11-19T01:07:04;8.60;99.90
30534;DHT22;73248;52.398;9.814;2023-11-19T01:09:37;8.60;99.90
30534;DHT22;73248;52.398;9.814;2023-11-19T01:12:03;8.70;99.90
30534;DHT22;73248;52.398;9.814;2023-11-19T01:14:29;8.70;99.90
30534;DHT22;73248;52.398;9.814;2023-11-19T01:16:57;8.80;99.90
30534;DHT22;73248;52.398;9.814;2023-11-19T01:19:28;8.80;99.90
30534;DHT22;73248;52.398;9.814;2023-11-19T01:21:56;8.90;99.90
30534;DHT22;73248;52.398;9.814;2023-11-19T01:24:22;8.90;99.90
30534;DHT22;73248;52.398;9.814;2023-11-19T01:26:47;8.90;99.90
30534;DHT22;73248;52.398;9.814;2023-11-19T01:29:14;8.90;99.90
30534;DHT22;73248;52.398;9.814;2023-11-19T01:31:45;8.90;99.90
30534;DHT22;73248;52.398;9.814;2023-11-19T01:34:10;8.90;99.90
30534;DHT22;73248;52.398;9.814;2023-11-19T01:36:37;9.00;99.90
30534;DHT22;73248;52.398;9.814;2023-11-19T01:39:03;9.00;99.90
30534;DHT22;73248;52.398;9.814;2023-11-19T01:41:34;8.90;99.90
30534;DHT22;73248;52.398;9.814;2023-11-19T01:44:01;9.00;99.90
30534;DHT22;73248;52.398;9.814;2023-11-19T01:46:26;9.00;99.90
30534;DHT22;73248;52.398;9.814;2023-11-19T01:48:54;9.00;99.90
30534;DHT22;73248;52.398;9.814;2023-11-19T01:51:20;9.10;99.90
30534;DHT22;73248;52.398;9.814;2023-11-19T01:53:49;9.10;99.90
30534;DHT22;73248;52.398;9.814;2023-11-19T01:56:15;9.10;99.90
30534;DHT22;73248;52.398;9.814;2023-11-19T01:58:43;9.20;99.90
30534;DHT22;73248;52.398;9.814;2023-11-19T02:01:10;9.20;99.90
30534;DHT22;73248;52.398;9.814;2023-11-19T02:03:37;9.20;99.90
30534;DHT22;73248;52.398;9.814;2023-11-19T02:06:05;9.20;99.90
30534;DHT22;73248;52.398;9.814;2023-11-19T02:08:30;9.20;99.90
30534;DHT22;73248;52.398;9.814;2023-11-19T02:10:57;9.20;99.90
30534;DHT22;73248;52.398;9.814;2023-11-19T02:13:24;9.20;99.90
30534;DHT22;73248;52.398;9.814;2023-11-19T02:15:50;9.20;99.90
30534;DHT22;73248;52.398;9.814;2023-11-19T02:18:27;9.30;99.90
30534;DHT22;73248;52.398;9.814;2023-11-19T02:20:59;9.30;99.90
30534;DHT22;73248;52.398;9.814;2023-11-19T02:23:28;9.30;99.90
30534;DHT22;73248;52.398;9.814;2023-11-19T02:26:14;9.30;99.90
30534;DHT22;73248;52.398;9.814;2023-11-19T02:28:42;9.40;99.90
30534;DHT22;73248;52.398;9.814;2023-11-19T02:31:08;9.40;99.90
30534;DHT22;73248;52.398;9.814;2023-11-19T02:33:36;9.40;99.90
30534;DHT22;73248;52.398;9.814;2023-11-19T02:36:03;9.40;99.90
30534;DHT22;73248;52.398;9.814;2023-11-19T02:38:29;9.40;99.90
30534;DHT22;73248;52.398;9.814;2023-11-19T02:40:56;9.50;99.90
30534;DHT22;73248;52.398;9.814;2023-11-19T02:43:22;9.50;99.90
30534;DHT22;73248;52.398;9.814;2023-11-19T02:45:50;9.60;99.90
30534;DHT22;73248;52.398;9.814;2023-11-19T02:48:23;9.60;99.90
30534;DHT22;73248;52.398;9.814;2023-11-19T02:50:48;9.60;99.90
30534;DHT22;73248;52.398;9.814;2023-11-19T02:53:14;9.70;99.90
30534;DHT22;73248;52.398;9.814;2023-11-19T02:55:41;9.60;99.90
30534;DHT22;73248;52.398;9.814;2023-11-19T02:58:13;9.70;99.90
30534;DHT22;73248;52.398;9.814;2023-11-19T03:00:45;9.80;99.90
30534;DHT22;73248;52.398;9.814;2023-11-19T03:03:22;9.80;99.90
30534;DHT22;73248;52.398;9.814;2023-11-19T03:05:51;9.80;99.90
30534;DHT22;73248;52.398;9.814;2023-11-19T03:08:17;9.90;99.90
30534;DHT22;73248;52.398;9.814;2023-11-19T03:10:42;9.80;99.90
30534;DHT22;73248;52.398;9.814;2023-11-19T03:13:14;9.90;99.90
30534;DHT22;73248;52.398;9.814;2023-11-19T03:15:40;9.90;99.90
30534;DHT22;73248;52.398;9.814;2023-11-19T03:18:06;9.90;99.90
30534;DHT22;73248;52.398;9.814;2023-11-19T03:20:32;10.00;99.90
30534;DHT22;73248;52.398;9.814;2023-11-19T03:23:04;10.00;99.90
30534;DHT22;73248;52.398;9.814;2023-11-19T03:25:31;10.00;99.90
30534;DHT22;73248;52.398;9.814;2023-11-19T03:28:02;10.00;99.90
30534;DHT22;73248;52.398;9.814;2023-11-19T03:30:28;10.00;99.90
30534;DHT22;73248;52.398;9.814;2023-11-19T03:32:55;10.10;99.90
30534;DHT22;73248;52.398;9.814;2023-11-19T03:35:21;10.10;99.90
30534;DHT22;73248;52.398;9.814;2023-11-19T03:37:46;10.10;99.90
30534;DHT22;73248;52.398;9.814;2023-11-19T03:40:14;10.20;99.90
30534;DHT22;73248;52.398;9.814;2023-11-19T03:42:40;10.20;99.90
30534;DHT22;73248;52.398;9.814;2023-11-19T03:45:06;10.20;99.90
30534;DHT22;73248;52.398;9.814;2023-11-19T03:47:34;10.20;99.90
30534;DHT22;73248;52.398;9.814;2023-11-19T03:50:00;10.20;99.90
30534;DHT22;73248;52.398;9.814;2023-11-19T03:52:25;10.30;99.90
30534;DHT22;73248;52.398;9.814;2023-11-19T03:54:53;10.30;99.90
30534;DHT22;73248;52.398;9.814;2023-11-19T03:57:22;10.30;99.90
30534;DHT22;73248;52.398;9.814;2023-11-19T03:59:48;10.40;99.90
30534;DHT22;73248;52.398;9.814;2023-11-19T04:02:17;10.40;99.90
30534;DHT22;73248;52.398;9.814;2023-11-19T04:04:42;10.40;99.90
30534;DHT22;73248;52.398;9.814;2023-11-19T04:07:08;10.40;99.90
30534;DHT22;73248;52.398;9.814;2023-11-19T04:09:34;10.40;99.90
30534;DHT22;73248;52.398;9.814;2023-11-19T04:12:01;10.40;99.90
30534;DHT22;73248;52.398;9.814;2023-11-19T04:14:27;10.40;99.90
30534;DHT22;73248;52.398;9.814;2023-11-19T04:16:53;10.40;99.90
30534;DHT22;73248;52.398;9.814;2023-11-19T04:19:19;10.50;99.90
30534;DHT22;73248;52.398;9.814;2023-11-19T04:21:45;10.40;99.90
30534;DHT22;73248;52.398;9.814;2023-11-19T04:24:12;10.50;99.90
30534;DHT22;73248;52.398;9.814;2023-11-19T04:26:42;10.50;99.90
30534;DHT22;73248;52.398;9.814;2023-11-19T04:29:15;10.50;99.90
30534;DHT22;73248;52.398;9.814;2023-11-19T04:31:45;10.60;99.90
30534;DHT22;73248;52.398;9.814;2023-11-19T04:34:11;10.60;99.90
30534;DHT22;73248;52.398;9.814;2023-11-19T04:36:37;10.70;99.90
30534;DHT22;73248;52.398;9.814;2023-11-19T04:39:03;10.60;99.90
30534;DHT22;73248;52.398;9.814;2023-11-19T04:41:35;10.60;99.90
30534;DHT22;73248;52.398;9.814;2023-11-19T04:44:01;10.60;99.90
30534;DHT22;73248;52.398;9.814;2023-11-19T04:46:26;10.60;99.90
30534;DHT22;73248;52.398;9.814;2023-11-19T04:48:54;10.70;99.90
30534;DHT22;73248;52.398;9.814;2023-11-19T04:51:20;10.70;99.90
30534;DHT22;73248;52.398;9.814;2023-11-19T04:53:47;10.70;99.90
30534;DHT22;73248;52.398;9.814;2023-11-19T04:56:13;10.70;99.90
30534;DHT22;73248;52.398;9.814;2023-11-19T04:58:39;10.70;99.90
30534;DHT22;73248;52.398;9.814;2023-11-19T05:01:04;10.70;99.90
30534;DHT22;73248;52.398;9.814;2023-11-19T05:03:31;10.80;99.90
30534;DHT22;73248;52.398;9.814;2023-11-19T05:05:57;10.80;99.90
30534;DHT22;73248;52.398;9.814;2023-11-19T05:08:23;10.80;99.90
30534;DHT22;73248;52.398;9.814;2023-11-19T05:10:49;10.90;99.90
30534;DHT22;73248;52.398;9.814;2023-11-19T05:13:16;10.90;99.90
30534;DHT22;73248;52.398;9.814;2023-11-19T05:15:42;10.90;99.90
30534;DHT22;73248;52.398;9.814;2023-11-19T05:18:08;10.90;99.90
30534;DHT22;73248;52.398;9.814;2023-11-19T05:20:34;11.00;99.90
30534;DHT22;73248;52.398;9.814;2023-11-19T05:23:00;11.00;99.90
30534;DHT22;73248;52.398;9.814;2023-11-19T05:25:27;11.00;99.90
30534;DHT22;73248;52.398;9.814;2023-11-19T05:27:55;11.10;99.90
30534;DHT22;73248;52.398;9.814;2023-11-19T05:30:21;11.10;99.90
30534;DHT22;73248;52.398;9.814;2023-11-19T05:32:49;11.10;99.90
30534;DHT22;73248;52.398;9.814;2023-11-19T05:35:15;11.10;99.90
30534;DHT22;73248;52.398;9.814;2023-11-19T05:37:40;11.20;99.90
30534;DHT22;73248;52.398;9.814;2023-11-19T05:40:07;11.20;99.90
30534;DHT22;73248;52.398;9.814;2023-11-19T05:42:42;11.20;99.90
30534;DHT22;73248;52.398;9.814;2023-11-19T05:45:11;11.20;99.90
30534;DHT22;73248;52.398;9.814;2023-11-19T05:47:40;11.20;99.90
30534;DHT22;73248;52.398;9.814;2023-11-19T05:50:08;11.30;99.90
30534;DHT22;73248;52.398;9.814;2023-11-19T05:52:35;11.30;99.90
30534;DHT22;73248;52.398;9.814;2023-11-19T05:55:01;11.30;99.90
30534;DHT22;73248;52.398;9.814;2023-11-19T05:57:30;11.30;99.90
30534;DHT22;73248;52.398;9.814;2023-11-19T06:00:00;11.30;99.90
30534;DHT22;73248;52.398;9.814;2023-11-19T06:02:28;11.30;99.90
30534;DHT22;73248;52.398;9.814;2023-11-19T06:04:54;11.40;99.90
30534;DHT22;73248;52.398;9.814;2023-11-19T06:07:20;11.40;99.90
30534;DHT22;73248;52.398;9.814;2023-11-19T06:09:45;11.40;99.90
30534;DHT22;73248;52.398;9.814;2023-11-19T06:12:11;11.50;99.90
30534;DHT22;73248;52.398;9.814;2023-11-19T06:14:37;11.40;99.90
30534;DHT22;73248;52.398;9.814;2023-11-19T06:17:03;11.50;99.90
30534;DHT22;73248;52.398;9.814;2023-11-19T06:19:30;11.50;99.90
30534;DHT22;73248;52.398;9.814;2023-11-19T06:22:00;11.60;99.90
30534;DHT22;73248;52.398;9.814;2023-11-19T06:24:28;11.60;99.90
30534;DHT22;73248;52.398;9.814;2023-11-19T06:26:54;11.60;99.90
30534;DHT22;73248;52.398;9.814;2023-11-19T06:29:20;11.60;99.90
30534;DHT22;73248;52.398;9.814;2023-11-19T06:31:45;11.70;99.90
30534;DHT22;73248;52.398;9.814;2023-11-19T06:34:16;11.70;99.90
30534;DHT22;73248;52.398;9.814;2023-11-19T06:36:42;11.70;99.90
30534;DHT22;73248;52.398;9.814;2023-11-19T06:39:09;11.80;99.90
30534;DHT22;73248;52.398;9.814;2023-11-19T06:41:38;11.90;99.90
30534;DHT22;73248;52.398;9.814;2023-11-19T06:44:04;11.90;99.90
30534;DHT22;73248;52.398;9.814;2023-11-19T06:46:30;11.90;99.90
30534;DHT22;73248;52.398;9.814;2023-11-19T06:48:56;11.90;99.90
30534;DHT22;73248;52.398;9.814;2023-11-19T06:51:22;12.00;99.90
30534;DHT22;73248;52.398;9.814;2023-11-19T06:53:48;12.00;99.90
30534;DHT22;73248;52.398;9.814;2023-11-19T06:56:23;12.10;99.90
30534;DHT22;73248;52.398;9.814;2023-11-19T06:58:49;12.10;99.90
30534;DHT22;73248;52.398;9.814;2023-11-19T07:01:15;12.10;99.90
30534;DHT22;73248;52.398;9.814;2023-11-19T07:03:41;12.20;99.90
30534;DHT22;73248;52.398;9.814;2023-11-19T07:06:07;12.10;99.90
30534;DHT22;73248;52.398;9.814;2023-11-19T07:08:35;12.10;99.90
30534;DHT22;73248;52.398;9.814;2023-11-19T07:11:03;12.20;99.90
30534;DHT22;73248;52.398;9.814;2023-11-19T07:13:31;12.10;99.90
30534;DHT22;73248;52.398;9.814;2023-11-19T07:15:56;12.20;99.90
30534;DHT22;73248;52.398;9.814;2023-11-19T07:18:22;12.20;99.90
30534;DHT22;73248;52.398;9.814;2023-11-19T07:20:48;12.20;99.90
30534;DHT22;73248;52.398;9.814;2023-11-19T07:23:14;12.20;99.90
30534;DHT22;73248;52.398;9.814;2023-11-19T07:25:45;12.20;99.90
30534;DHT22;73248;52.398;9.814;2023-11-19T07:28:13;12.20;99.90
30534;DHT22;73248;52.398;9.814;2023-11-19T07:30:42;12.20;99.90
30534;DHT22;73248;52.398;9.814;2023-11-19T07:33:07;12.20;99.90
30534;DHT22;73248;52.398;9.814;2023-11-19T07:35:33;12.20;99.90
30534;DHT22;73248;52.398;9.814;2023-11-19T07:37:59;12.20;99.90
30534;DHT22;73248;52.398;9.814;2023-11-19T07:40:25;12.20;99.90
30534;DHT22;73248;52.398;9.814;2023-11-19T07:42:50;12.20;99.90
30534;DHT22;73248;52.398;9.814;2023-11-19T07:45:16;12.30;99.90
30534;DHT22;73248;52.398;9.814;2023-11-19T07:47:43;12.30;99.90
30534;DHT22;73248;52.398;9.814;2023-11-19T07:50:11;12.30;99.90
30534;DHT22;73248;52.398;9.814;2023-11-19T07:52:42;12.30;99.90
30534;DHT22;73248;52.398;9.814;2023-11-19T07:55:08;12.30;99.90
30534;DHT22;73248;52.398;9.814;2023-11-19T07:57:34;12.20;99.90
30534;DHT22;73248;52.398;9.814;2023-11-19T07:59:59;12.30;99.90
30534;DHT22;73248;52.398;9.814;2023-11-19T08:02:29;12.20;99.90
30534;DHT22;73248;52.398;9.814;2023-11-19T08:04:54;12.30;99.90
30534;DHT22;73248;52.398;9.814;2023-11-19T08:07:23;12.30;99.90
30534;DHT22;73248;52.398;9.814;2023-11-19T08:09:48;12.30;99.90
30534;DHT22;73248;52.398;9.814;2023-11-19T08:12:14;12.20;99.90
30534;DHT22;73248;52.398;9.814;2023-11-19T08:14:41;12.30;99.90
30534;DHT22;73248;52.398;9.814;2023-11-19T08:17:09;12.20;99.90
30534;DHT22;73248;52.398;9.814;2023-11-19T08:19:36;12.20;99.90
30534;DHT22;73248;52.398;9.814;2023-11-19T08:22:04;12.30;99.90
30534;DHT22;73248;52.398;9.814;2023-11-19T08:24:30;12.30;99.90
30534;DHT22;73248;52.398;9.814;2023-11-19T08:26:55;12.30;99.90
30534;DHT22;73248;52.398;9.814;2023-11-19T08:29:21;12.30;99.90
30534;DHT22;73248;52.398;9.814;2023-11-19T08:31:49;12.30;99.90
30534;DHT22;73248;52.398;9.814;2023-11-19T08:34:15;12.30;99.90
30534;DHT22;73248;52.398;9.814;2023-11-19T08:36:41;12.30;99.90
30534;DHT22;73248;52.398;9.814;2023-11-19T08:39:06;12.30;99.90
30534;DHT22;73248;52.398;9.814;2023-11-19T08:41:34;12.30;99.90
30534;DHT22;73248;52.398;9.814;2023-11-19T08:44:01;12.40;99.90
30534;DHT22;73248;52.398;9.814;2023-11-19T08:46:26;12.30;99.90
30534;DHT22;73248;52.398;9.814;2023-11-19T08:48:52;12.30;99.90
30534;DHT22;73248;52.398;9.814;2023-11-19T08:51:18;12.30;99.90
30534;DHT22;73248;52.398;9.814;2023-11-19T08:53:43;12.40;99.90
30534;DHT22;73248;52.398;9.814;2023-11-19T08:56:13;12.30;99.90
30534;DHT22;73248;52.398;9.814;2023-11-19T08:58:39;12.30;99.90
30534;DHT22;73248;52.398;9.814;2023-11-19T09:01:05;12.30;99.90
30534;DHT22;73248;52.398;9.814;2023-11-19T09:03:31;12.30;99.90
30534;DHT22;73248;52.398;9.814;2023-11-19T09:05:57;12.30;99.90
30534;DHT22;73248;52.398;9.814;2023-11-19T09:08:25;12.30;99.90
30534;DHT22;73248;52.398;9.814;2023-11-19T09:10:51;12.40;99.90
30534;DHT22;73248;52.398;9.814;2023-11-19T09:13:16;12.40;99.90
30534;DHT22;73248;52.398;9.814;2023-11-19T09:15:45;12.40;99.90
30534;DHT22;73248;52.398;9.814;2023-11-19T09:18:14;12.40;99.90
30534;DHT22;73248;52.398;9.814;2023-11-19T09:20:39;12.40;99.90
30534;DHT22;73248;52.398;9.814;2023-11-19T09:23:07;12.40;99.90
30534;DHT22;73248;52.398;9.814;2023-11-19T09:25:34;12.40;99.90
30534;DHT22;73248;52.398;9.814;2023-11-19T09:28:02;12.40;99.90
30534;DHT22;73248;52.398;9.814;2023-11-19T09:30:27;12.40;99.90
30534;DHT22;73248;52.398;9.814;2023-11-19T09:32:56;12.40;99.90
30534;DHT22;73248;52.398;9.814;2023-11-19T09:35:24;12.50;99.90
30534;DHT22;73248;52.398;9.814;2023-11-19T09:37:50;12.50;99.90
30534;DHT22;73248;52.398;9.814;2023-11-19T09:40:18;12.60;99.90
30534;DHT22;73248;52.398;9.814;2023-11-19T09:42:44;12.60;99.90
30534;DHT22;73248;52.398;9.814;2023-11-19T09:45:17;12.60;99.90
30534;DHT22;73248;52.398;9.814;2023-11-19T09:47:46;12.60;99.90
30534;DHT22;73248;52.398;9.814;2023-11-19T09:50:18;12.60;99.90
30534;DHT22;73248;52.398;9.814;2023-11-19T09:52:44;12.60;99.90
30534;DHT22;73248;52.398;9.814;2023-11-19T09:55:11;12.60;99.90
30534;DHT22;73248;52.398;9.814;2023-11-19T09:57:41;12.60;99.90
30534;DHT22;73248;52.398;9.814;2023-11-19T10:00:10;12.50;99.90
30534;DHT22;73248;52.398;9.814;2023-11-19T10:02:37;12.50;99.90
30534;DHT22;73248;52.398;9.814;2023-11-19T10:05:08;12.50;99.90
30534;DHT22;73248;52.398;9.814;2023-11-19T10:07:35;12.50;99.90
30534;DHT22;73248;52.398;9.814;2023-11-19T10:10:04;12.60;99.90
30534;DHT22;73248;52.398;9.814;2023-11-19T10:12:33;12.60;99.90
30534;DHT22;73248;52.398;9.814;2023-11-19T10:14:59;12.60;99.90
30534;DHT22;73248;52.398;9.814;2023-11-19T10:17:30;12.70;99.90
30534;DHT22;73248;52.398;9.814;2023-11-19T10:19:57;12.70;99.90
30534;DHT22;73248;52.398;9.814;2023-11-19T10:22:23;12.70;99.90
30534;DHT22;73248;52.398;9.814;2023-11-19T10:24:52;12.70;99.90
30534;DHT22;73248;52.398;9.814;2023-11-19T10:27:24;12.70;99.90
30534;DHT22;73248;52.398;9.814;2023-11-19T10:29:49;12.80;99.90
30534;DHT22;73248;52.398;9.814;2023-11-19T10:32:15;12.70;99.90
30534;DHT22;73248;52.398;9.814;2023-11-19T10:34:44;12.80;99.90
30534;DHT22;73248;52.398;9.814;2023-11-19T10:37:27;12.80;99.90
30534;DHT22;73248;52.398;9.814;2023-11-19T10:39:54;12.90;99.90
30534;DHT22;73248;52.398;9.814;2023-11-19T10:42:22;12.90;99.90
30534;DHT22;73248;52.398;9.814;2023-11-19T10:44:49;12.90;99.90
30534;DHT22;73248;52.398;9.814;2023-11-19T10:47:15;12.90;99.90
30534;DHT22;73248;52.398;9.814;2023-11-19T10:49:45;13.00;99.90
30534;DHT22;73248;52.398;9.814;2023-11-19T10:52:12;13.00;99.90
30534;DHT22;73248;52.398;9.814;2023-11-19T10:54:48;13.10;99.90
30534;DHT22;73248;52.398;9.814;2023-11-19T10:57:20;13.20;99.90
30534;DHT22;73248;52.398;9.814;2023-11-19T10:59:47;13.20;99.90
30534;DHT22;73248;52.398;9.814;2023-11-19T11:02:18;13.30;99.90
30534;DHT22;73248;52.398;9.814;2023-11-19T11:04:46;13.30;99.90
30534;DHT22;73248;52.398;9.814;2023-11-19T11:07:13;13.30;99.90
30534;DHT22;73248;52.398;9.814;2023-11-19T11:09:41;13.30;99.90
30534;DHT22;73248;52.398;9.814;2023-11-19T11:12:11;13.30;99.90
30534;DHT22;73248;52.398;9.814;2023-11-19T11:14:38;13.30;99.90
30534;DHT22;73248;52.398;9.814;2023-11-19T11:17:06;13.40;99.90
30534;DHT22;73248;52.398;9.814;2023-11-19T11:19:34;13.40;99.90
30534;DHT22;73248;52.398;9.814;2023-11-19T11:22:02;13.40;99.90
30534;DHT22;73248;52.398;9.814;2023-11-19T11:24:42;13.40;99.90
30534;DHT22;73248;52.398;9.814;2023-11-19T11:30:29;13.30;99.90
30534;DHT22;73248;52.398;9.814;2023-11-19T11:36:13;13.30;99.90
30534;DHT22;73248;52.398;9.814;2023-11-19T11:38:41;13.30;99.90
30534;DHT22;73248;52.398;9.814;2023-11-19T11:41:26;13.30;99.90
30534;DHT22;73248;52.398;9.814;2023-11-19T11:43:54;13.30;99.90
30534;DHT22;73248;52.398;9.814;2023-11-19T11:54:31;13.20;99.90
30534;DHT22;73248;52.398;9.814;2023-11-19T11:57:06;13.30;99.90
30534;DHT22;73248;52.398;9.814;2023-11-19T11:59:48;13.20;99.90
30534;DHT22;73248;52.398;9.814;2023-11-19T12:02:16;13.20;99.90
30534;DHT22;73248;52.398;9.814;2023-11-19T12:04:43;13.20;99.90
30534;DHT22;73248;52.398;9.814;2023-11-19T12:07:17;13.20;99.90
30534;DHT22;73248;52.398;9.814;2023-11-19T12:09:47;13.20;99.90
30534;DHT22;73248;52.398;9.814;2023-11-19T12:20:03;13.20;99.90
30534;DHT22;73248;52.398;9.814;2023-11-19T12:22:31;13.20;99.90
30534;DHT22;73248;52.398;9.814;2023-11-19T12:24:56;13.30;99.90
30534;DHT22;73248;52.398;9.814;2023-11-19T12:27:23;13.20;99.90
30534;DHT22;73248;52.398;9.814;2023-11-19T12:29:49;13.30;99.90
30534;DHT22;73248;52.398;9.814;2023-11-19T12:32:15;13.30;99.90
30534;DHT22;73248;52.398;9.814;2023-11-19T12:34:43;13.30;99.90
30534;DHT22;73248;52.398;9.814;2023-11-19T12:37:12;13.20;99.90
30534;DHT22;73248;52.398;9.814;2023-11-19T12:39:38;13.30;99.90
30534;DHT22;73248;52.398;9.814;2023-11-19T12:42:04;13.30;99.90
30534;DHT22;73248;52.398;9.814;2023-11-19T12:44:33;13.30;99.90
30534;DHT22;73248;52.398;9.814;2023-11-19T12:47:06;13.30;99.90
30534;DHT22;73248;52.398;9.814;2023-11-19T12:49:35;13.30;99.90
30534;DHT22;73248;52.398;9.814;2023-11-19T12:52:01;13.30;99.90
30534;DHT22;73248;52.398;9.814;2023-11-19T12:54:33;13.30;99.90
30534;DHT22;73248;52.398;9.814;2023-11-19T12:57:01;13.30;99.90
30534;DHT22;73248;52.398;9.814;2023-11-19T12:59:28;13.30;99.90
30534;DHT22;73248;52.398;9.814;2023-11-19T13:02:02;13.30;99.90
30534;DHT22;73248;52.398;9.814;2023-11-19T13:04:31;13.20;99.90
30534;DHT22;73248;52.398;9.814;2023-11-19T13:07:00;13.20;99.90
30534;DHT22;73248;52.398;9.814;2023-11-19T13:09:27;13.30;99.90
30534;DHT22;73248;52.398;9.814;2023-11-19T13:11:54;13.20;99.90
30534;DHT22;73248;52.398;9.814;2023-11-19T13:14:20;13.20;99.90
30534;DHT22;73248;52.398;9.814;2023-11-19T13:16:46;13.20;99.90
30534;DHT22;73248;52.398;9.814;2023-11-19T13:19:15;13.20;99.90
30534;DHT22;73248;52.398;9.814;2023-11-19T13:21:47;13.20;99.90
30534;DHT22;73248;52.398;9.814;2023-11-19T13:24:15;13.20;99.90
30534;DHT22;73248;52.398;9.814;2023-11-19T13:26:41;13.20;99.90
30534;DHT22;73248;52.398;9.814;2023-11-19T13:29:07;13.20;99.90
30534;DHT22;73248;52.398;9.814;2023-11-19T13:31:32;13.20;99.90
30534;DHT22;73248;52.398;9.814;2023-11-19T13:33:58;13.20;99.90
30534;DHT22;73248;52.398;9.814;2023-11-19T13:36:24;13.20;99.90
30534;DHT22;73248;52.398;9.814;2023-11-19T13:38:50;13.10;99.90
30534;DHT22;73248;52.398;9.814;2023-11-19T13:41:16;13.10;99.90
30534;DHT22;73248;52.398;9.814;2023-11-19T13:43:42;13.10;99.90
30534;DHT22;73248;52.398;9.814;2023-11-19T13:46:10;13.10;99.90
30534;DHT22;73248;52.398;9.814;2023-11-19T13:48:36;13.10;99.90
30534;DHT22;73248;52.398;9.814;2023-11-19T13:51:02;13.10;99.90
30534;DHT22;73248;52.398;9.814;2023-11-19T13:53:28;13.10;99.90
30534;DHT22;73248;52.398;9.814;2023-11-19T13:55:53;13.10;99.90
30534;DHT22;73248;52.398;9.814;2023-11-19T13:58:21;13.10;99.90
30534;DHT22;73248;52.398;9.814;2023-11-19T14:00:47;13.10;99.90
30534;DHT22;73248;52.398;9.814;2023-11-19T14:03:13;13.10;99.90
30534;DHT22;73248;52.398;9.814;2023-11-19T14:05:39;13.20;99.90
30534;DHT22;73248;52.398;9.814;2023-11-19T14:08:06;13.20;99.90
30534;DHT22;73248;52.398;9.814;2023-11-19T14:10:38;13.20;99.90
30534;DHT22;73248;52.398;9.814;2023-11-19T14:13:06;13.20;99.90
30534;DHT22;73248;52.398;9.814;2023-11-19T14:15:32;13.20;99.90
30534;DHT22;73248;52.398;9.814;2023-11-19T14:18:00;13.10;99.90
30534;DHT22;73248;52.398;9.814;2023-11-19T14:20:28;13.10;99.90
30534;DHT22;73248;52.398;9.814;2023-11-19T14:23:00;13.10;99.90
30534;DHT22;73248;52.398;9.814;2023-11-19T14:25:25;13.10;99.90
30534;DHT22;73248;52.398;9.814;2023-11-19T14:27:51;13.20;99.90
30534;DHT22;73248;52.398;9.814;2023-11-19T14:30:16;13.20;99.90
30534;DHT22;73248;52.398;9.814;2023-11-19T14:32:43;13.20;99.90
30534;DHT22;73248;52.398;9.814;2023-11-19T14:35:13;13.10;99.90
30534;DHT22;73248;52.398;9.814;2023-11-19T14:37:42;13.10;99.90
30534;DHT22;73248;52.398;9.814;2023-11-19T14:40:08;13.10;99.90
30534;DHT22;73248;52.398;9.814;2023-11-19T14:42:36;13.10;99.90
30534;DHT22;73248;52.398;9.814;2023-11-19T14:45:02;13.10;99.90
30534;DHT22;73248;52.398;9.814;2023-11-19T14:47:28;13.10;99.90
30534;DHT22;73248;52.398;9.814;2023-11-19T14:49:55;13.00;99.90
30534;DHT22;73248;52.398;9.814;2023-11-19T14:52:21;13.00;99.90
30534;DHT22;73248;52.398;9.814;2023-11-19T14:54:47;13.00;99.90
30534;DHT22;73248;52.398;9.814;2023-11-19T14:57:13;13.00;99.90
30534;DHT22;73248;52.398;9.814;2023-11-19T14:59:39;13.00;99.90
30534;DHT22;73248;52.398;9.814;2023-11-19T15:02:05;12.90;99.90
30534;DHT22;73248;52.398;9.814;2023-11-19T15:04:33;12.80;99.90
30534;DHT22;73248;52.398;9.814;2023-11-19T15:07:00;12.70;99.90
30534;DHT22;73248;52.398;9.814;2023-11-19T15:09:26;12.70;99.90
30534;DHT22;73248;52.398;9.814;2023-11-19T15:11:55;12.60;99.90
30534;DHT22;73248;52.398;9.814;2023-11-19T15:14:21;12.60;99.90
30534;DHT22;73248;52.398;9.814;2023-11-19T15:16:47;12.70;99.90
30534;DHT22;73248;52.398;9.814;2023-11-19T15:19:13;12.70;99.90
30534;DHT22;73248;52.398;9.814;2023-11-19T15:21:40;12.60;99.90
30534;DHT22;73248;52.398;9.814;2023-11-19T15:24:06;12.60;99.90
30534;DHT22;73248;52.398;9.814;2023-11-19T15:26:34;12.50;99.90
30534;DHT22;73248;52.398;9.814;2023-11-19T15:29:01;12.50;99.90
30534;DHT22;73248;52.398;9.814;2023-11-19T15:31:26;12.40;99.90
30534;DHT22;73248;52.398;9.814;2023-11-19T15:33:52;12.30;99.90
30534;DHT22;73248;52.398;9.814;2023-11-19T15:36:18;12.40;99.90
30534;DHT22;73248;52.398;9.814;2023-11-19T15:38:45;12.40;99.90
30534;DHT22;73248;52.398;9.814;2023-11-19T15:41:11;12.40;99.90
30534;DHT22;73248;52.398;9.814;2023-11-19T15:43:39;12.20;99.90
30534;DHT22;73248;52.398;9.814;2023-11-19T15:46:13;12.10;99.90
30534;DHT22;73248;52.398;9.814;2023-11-19T15:48:41;12.10;99.90
30534;DHT22;73248;52.398;9.814;2023-11-19T15:51:07;12.10;99.90
30534;DHT22;73248;52.398;9.814;2023-11-19T15:53:35;12.10;99.90
30534;DHT22;73248;52.398;9.814;2023-11-19T15:56:04;12.10;99.90
30534;DHT22;73248;52.398;9.814;2023-11-19T15:58:32;12.10;99.90